sensor_id;sensor_type;location;lat;lon;timestamp;temperature;humidity
52058;DHT22;38063;53.210;6.504;2023-08-31T00:01:39;11.30;99.90
52058;DHT22;38063;53.210;6.504;2023-08-31T00:04:05;11.70;99.90
52058;DHT22;38063;53.210;6.504;2023-08-31T00:06:34;11.30;99.90
52058;DHT22;38063;53.210;6.504;2023-08-31T00:08:59;11.30;99.90
52058;DHT22;38063;53.210;6.504;2023-08-31T00:11:25;11.30;99.90
52058;DHT22;38063;53.210;6.504;2023-08-31T00:13:51;11.40;99.90
52058;DHT22;38063;53.210;6.504;2023-08-31T00:16:19;11.30;99.90
52058;DHT22;38063;53.210;6.504;2023-08-31T00:18:50;11.40;99.90
52058;DHT22;38063;53.210;6.504;2023-08-31T00:21:15;11.30;99.90
52058;DHT22;38063;53.210;6.504;2023-08-31T00:23:41;11.40;99.90
52058;DHT22;38063;53.210;6.504;2023-08-31T00:26:06;11.30;99.90
52058;DHT22;38063;53.210;6.504;2023-08-31T00:28:32;11.40;99.90
52058;DHT22;38063;53.210;6.504;2023-08-31T00:31:01;11.30;99.90
52058;DHT22;38063;53.210;6.504;2023-08-31T00:33:29;11.30;99.90
52058;DHT22;38063;53.210;6.504;2023-08-31T00:35:58;11.30;99.90
52058;DHT22;38063;53.210;6.504;2023-08-31T00:38:27;11.30;99.90
52058;DHT22;38063;53.210;6.504;2023-08-31T00:40:53;11.70;99.90
52058;DHT22;38063;53.210;6.504;2023-08-31T00:43:19;11.30;99.90
52058;DHT22;38063;53.210;6.504;2023-08-31T00:45:46;11.30;99.90
52058;DHT22;38063;53.210;6.504;2023-08-31T00:48:18;11.30;99.90
52058;DHT22;38063;53.210;6.504;2023-08-31T00:50:45;11.30;99.90
52058;DHT22;38063;53.210;6.504;2023-08-31T00:53:11;11.30;99.90
52058;DHT22;38063;53.210;6.504;2023-08-31T00:55:37;11.30;99.90
52058;DHT22;38063;53.210;6.504;2023-08-31T00:58:04;11.30;99.90
52058;DHT22;38063;53.210;6.504;2023-08-31T01:00:40;11.20;99.90
52058;DHT22;38063;53.210;6.504;2023-08-31T01:03:14;11.20;99.90
52058;DHT22;38063;53.210;6.504;2023-08-31T01:05:56;11.20;99.90
52058;DHT22;38063;53.210;6.504;2023-08-31T01:11:16;11.20;99.90
52058;DHT22;38063;53.210;6.504;2023-08-31T01:13:48;11.20;99.90
52058;DHT22;38063;53.210;6.504;2023-08-31T01:16:17;11.10;99.90
52058;DHT22;38063;53.210;6.504;2023-08-31T01:18:43;11.20;99.90
52058;DHT22;38063;53.210;6.504;2023-08-31T01:23:56;11.10;99.90
52058;DHT22;38063;53.210;6.504;2023-08-31T01:26:24;11.00;99.90
52058;DHT22;38063;53.210;6.504;2023-08-31T01:28:51;11.10;99.90
52058;DHT22;38063;53.210;6.504;2023-08-31T01:31:17;11.00;99.90
52058;DHT22;38063;53.210;6.504;2023-08-31T01:33:43;11.00;99.90
52058;DHT22;38063;53.210;6.504;2023-08-31T01:36:18;11.20;99.90
52058;DHT22;38063;53.210;6.504;2023-08-31T01:38:48;10.90;99.90
52058;DHT22;38063;53.210;6.504;2023-08-31T01:41:17;10.80;99.90
52058;DHT22;38063;53.210;6.504;2023-08-31T01:43:46;10.80;99.90
52058;DHT22;38063;53.210;6.504;2023-08-31T01:46:14;10.80;99.90
52058;DHT22;38063;53.210;6.504;2023-08-31T01:48:40;10.70;99.90
52058;DHT22;38063;53.210;6.504;2023-08-31T01:51:07;10.80;99.90
52058;DHT22;38063;53.210;6.504;2023-08-31T01:53:33;10.70;99.90
52058;DHT22;38063;53.210;6.504;2023-08-31T01:56:00;10.70;99.90
52058;DHT22;38063;53.210;6.504;2023-08-31T01:58:25;10.60;99.90
52058;DHT22;38063;53.210;6.504;2023-08-31T02:00:51;10.60;99.90
52058;DHT22;38063;53.210;6.504;2023-08-31T02:03:17;10.60;99.90
52058;DHT22;38063;53.210;6.504;2023-08-31T02:05:42;10.50;99.90
52058;DHT22;38063;53.210;6.504;2023-08-31T02:08:08;10.50;99.90
52058;DHT22;38063;53.210;6.504;2023-08-31T02:10:33;10.40;99.90
52058;DHT22;38063;53.210;6.504;2023-08-31T02:12:59;10.40;99.90
52058;DHT22;38063;53.210;6.504;2023-08-31T02:15:25;10.40;99.90
52058;DHT22;38063;53.210;6.504;2023-08-31T02:17:52;10.40;99.90
52058;DHT22;38063;53.210;6.504;2023-08-31T02:20:18;10.50;99.90
52058;DHT22;38063;53.210;6.504;2023-08-31T02:22:46;10.40;99.90
52058;DHT22;38063;53.210;6.504;2023-08-31T02:25:11;10.40;99.90
52058;DHT22;38063;53.210;6.504;2023-08-31T02:27:38;10.50;99.90
52058;DHT22;38063;53.210;6.504;2023-08-31T02:30:04;10.50;99.90
52058;DHT22;38063;53.210;6.504;2023-08-31T02:32:30;10.40;99.90
52058;DHT22;38063;53.210;6.504;2023-08-31T02:34:56;10.40;99.90
52058;DHT22;38063;53.210;6.504;2023-08-31T02:37:22;10.70;99.90
52058;DHT22;38063;53.210;6.504;2023-08-31T02:39:47;10.40;99.90
52058;DHT22;38063;53.210;6.504;2023-08-31T02:42:14;10.50;99.90
52058;DHT22;38063;53.210;6.504;2023-08-31T02:44:40;10.50;99.90
52058;DHT22;38063;53.210;6.504;2023-08-31T02:47:05;10.40;99.90
52058;DHT22;38063;53.210;6.504;2023-08-31T02:49:31;10.90;99.90
52058;DHT22;38063;53.210;6.504;2023-08-31T02:51:57;10.40;99.90
52058;DHT22;38063;53.210;6.504;2023-08-31T02:54:23;10.40;99.90
52058;DHT22;38063;53.210;6.504;2023-08-31T02:56:48;10.40;99.90
52058;DHT22;38063;53.210;6.504;2023-08-31T02:59:14;10.40;99.90
52058;DHT22;38063;53.210;6.504;2023-08-31T03:01:39;10.50;99.90
52058;DHT22;38063;53.210;6.504;2023-08-31T03:04:06;10.40;99.90
52058;DHT22;38063;53.210;6.504;2023-08-31T03:06:32;10.40;99.90
52058;DHT22;38063;53.210;6.504;2023-08-31T03:08:58;10.40;99.90
52058;DHT22;38063;53.210;6.504;2023-08-31T03:11:24;10.40;99.90
52058;DHT22;38063;53.210;6.504;2023-08-31T03:13:49;10.40;99.90
52058;DHT22;38063;53.210;6.504;2023-08-31T03:16:15;10.40;99.90
52058;DHT22;38063;53.210;6.504;2023-08-31T03:18:41;10.40;99.90
52058;DHT22;38063;53.210;6.504;2023-08-31T03:21:06;10.30;99.90
52058;DHT22;38063;53.210;6.504;2023-08-31T03:23:33;10.30;99.90
52058;DHT22;38063;53.210;6.504;2023-08-31T03:25:58;10.30;99.90
52058;DHT22;38063;53.210;6.504;2023-08-31T03:28:24;10.30;99.90
52058;DHT22;38063;53.210;6.504;2023-08-31T03:30:56;10.30;99.90
52058;DHT22;38063;53.210;6.504;2023-08-31T03:33:22;10.30;99.90
52058;DHT22;38063;53.210;6.504;2023-08-31T03:35:48;10.30;99.90
52058;DHT22;38063;53.210;6.504;2023-08-31T03:38:14;10.30;99.90
52058;DHT22;38063;53.210;6.504;2023-08-31T03:40:39;10.30;99.90
52058;DHT22;38063;53.210;6.504;2023-08-31T03:43:05;10.40;99.90
52058;DHT22;38063;53.210;6.504;2023-08-31T03:45:30;10.40;99.90
52058;DHT22;38063;53.210;6.504;2023-08-31T03:47:56;10.40;99.90
52058;DHT22;38063;53.210;6.504;2023-08-31T03:50:22;10.40;99.90
52058;DHT22;38063;53.210;6.504;2023-08-31T03:52:47;10.40;99.90
52058;DHT22;38063;53.210;6.504;2023-08-31T03:55:13;10.40;99.90
52058;DHT22;38063;53.210;6.504;2023-08-31T03:57:39;10.40;99.90
52058;DHT22;38063;53.210;6.504;2023-08-31T04:00:05;10.40;99.90
52058;DHT22;38063;53.210;6.504;2023-08-31T04:02:38;10.30;99.90
52058;DHT22;38063;53.210;6.504;2023-08-31T04:05:04;10.30;99.90
52058;DHT22;38063;53.210;6.504;2023-08-31T04:07:32;10.40;99.90
52058;DHT22;38063;53.210;6.504;2023-08-31T04:09:58;10.30;99.90
52058;DHT22;38063;53.210;6.504;2023-08-31T04:12:24;10.40;99.90
52058;DHT22;38063;53.210;6.504;2023-08-31T04:14:50;10.30;99.90
52058;DHT22;38063;53.210;6.504;2023-08-31T04:17:15;10.30;99.90
52058;DHT22;38063;53.210;6.504;2023-08-31T04:19:41;10.90;99.90
52058;DHT22;38063;53.210;6.504;2023-08-31T04:22:06;10.30;99.90
52058;DHT22;38063;53.210;6.504;2023-08-31T04:24:32;10.30;99.90
52058;DHT22;38063;53.210;6.504;2023-08-31T04:26:58;10.30;99.90
52058;DHT22;38063;53.210;6.504;2023-08-31T04:29:24;10.30;99.90
52058;DHT22;38063;53.210;6.504;2023-08-31T04:31:50;10.30;99.90
52058;DHT22;38063;53.210;6.504;2023-08-31T04:34:16;10.30;99.90
52058;DHT22;38063;53.210;6.504;2023-08-31T04:36:41;10.30;99.90
52058;DHT22;38063;53.210;6.504;2023-08-31T04:39:07;10.40;99.90
52058;DHT22;38063;53.210;6.504;2023-08-31T04:41:33;10.30;99.90
52058;DHT22;38063;53.210;6.504;2023-08-31T04:43:58;10.30;99.90
52058;DHT22;38063;53.210;6.504;2023-08-31T04:46:24;10.30;99.90
52058;DHT22;38063;53.210;6.504;2023-08-31T04:48:50;10.30;99.90
52058;DHT22;38063;53.210;6.504;2023-08-31T04:51:33;10.30;99.90
52058;DHT22;38063;53.210;6.504;2023-08-31T04:54:00;10.30;99.90
52058;DHT22;38063;53.210;6.504;2023-08-31T04:56:30;10.40;99.90
52058;DHT22;38063;53.210;6.504;2023-08-31T04:58:55;10.30;99.90
52058;DHT22;38063;53.210;6.504;2023-08-31T05:01:21;10.50;99.90
52058;DHT22;38063;53.210;6.504;2023-08-31T05:03:47;10.30;99.90
52058;DHT22;38063;53.210;6.504;2023-08-31T05:06:12;10.30;99.90
52058;DHT22;38063;53.210;6.504;2023-08-31T05:08:38;10.30;99.90
52058;DHT22;38063;53.210;6.504;2023-08-31T05:11:04;10.30;99.90
52058;DHT22;38063;53.210;6.504;2023-08-31T05:13:29;10.30;99.90
52058;DHT22;38063;53.210;6.504;2023-08-31T05:15:55;10.30;99.90
52058;DHT22;38063;53.210;6.504;2023-08-31T05:18:20;10.30;99.90
52058;DHT22;38063;53.210;6.504;2023-08-31T05:20:46;10.30;99.90
52058;DHT22;38063;53.210;6.504;2023-08-31T05:23:14;10.30;99.90
52058;DHT22;38063;53.210;6.504;2023-08-31T05:25:44;10.40;99.90
52058;DHT22;38063;53.210;6.504;2023-08-31T05:28:09;10.40;99.90
52058;DHT22;38063;53.210;6.504;2023-08-31T05:30:35;10.40;99.90
52058;DHT22;38063;53.210;6.504;2023-08-31T05:33:01;10.40;99.90
52058;DHT22;38063;53.210;6.504;2023-08-31T05:35:27;10.40;99.90
52058;DHT22;38063;53.210;6.504;2023-08-31T05:37:53;10.50;99.90
52058;DHT22;38063;53.210;6.504;2023-08-31T05:40:18;10.50;99.90
52058;DHT22;38063;53.210;6.504;2023-08-31T05:42:44;10.80;99.90
52058;DHT22;38063;53.210;6.504;2023-08-31T05:45:10;10.50;99.90
52058;DHT22;38063;53.210;6.504;2023-08-31T05:47:36;10.60;99.90
52058;DHT22;38063;53.210;6.504;2023-08-31T05:50:01;10.60;99.90
52058;DHT22;38063;53.210;6.504;2023-08-31T05:52:28;10.70;99.90
52058;DHT22;38063;53.210;6.504;2023-08-31T05:54:54;10.80;99.90
52058;DHT22;38063;53.210;6.504;2023-08-31T05:57:20;10.80;99.90
52058;DHT22;38063;53.210;6.504;2023-08-31T05:59:47;10.80;99.90
52058;DHT22;38063;53.210;6.504;2023-08-31T06:02:13;11.00;99.90
52058;DHT22;38063;53.210;6.504;2023-08-31T06:04:38;11.00;99.90
52058;DHT22;38063;53.210;6.504;2023-08-31T06:07:04;11.10;99.90
52058;DHT22;38063;53.210;6.504;2023-08-31T06:09:33;11.20;99.90
52058;DHT22;38063;53.210;6.504;2023-08-31T06:11:58;11.50;99.90
52058;DHT22;38063;53.210;6.504;2023-08-31T06:14:24;11.40;99.90
52058;DHT22;38063;53.210;6.504;2023-08-31T06:16:50;11.50;99.90
52058;DHT22;38063;53.210;6.504;2023-08-31T06:19:15;11.60;99.90
52058;DHT22;38063;53.210;6.504;2023-08-31T06:21:41;11.70;99.90
52058;DHT22;38063;53.210;6.504;2023-08-31T06:24:07;11.70;99.90
52058;DHT22;38063;53.210;6.504;2023-08-31T06:26:35;11.80;99.90
52058;DHT22;38063;53.210;6.504;2023-08-31T06:29:01;11.90;99.90
52058;DHT22;38063;53.210;6.504;2023-08-31T06:31:29;11.90;99.90
52058;DHT22;38063;53.210;6.504;2023-08-31T06:33:55;12.00;99.90
52058;DHT22;38063;53.210;6.504;2023-08-31T06:36:21;12.10;99.90
52058;DHT22;38063;53.210;6.504;2023-08-31T06:38:46;12.20;99.90
52058;DHT22;38063;53.210;6.504;2023-08-31T06:41:12;12.30;99.90
52058;DHT22;38063;53.210;6.504;2023-08-31T06:43:37;12.50;99.90
52058;DHT22;38063;53.210;6.504;2023-08-31T06:46:03;12.50;99.90
52058;DHT22;38063;53.210;6.504;2023-08-31T06:48:29;12.60;99.90
52058;DHT22;38063;53.210;6.504;2023-08-31T06:50:54;12.70;99.90
52058;DHT22;38063;53.210;6.504;2023-08-31T06:53:21;12.80;99.90
52058;DHT22;38063;53.210;6.504;2023-08-31T06:55:47;12.90;99.90
52058;DHT22;38063;53.210;6.504;2023-08-31T06:58:13;13.00;99.90
52058;DHT22;38063;53.210;6.504;2023-08-31T07:00:39;13.10;99.90
52058;DHT22;38063;53.210;6.504;2023-08-31T07:03:05;13.30;99.90
52058;DHT22;38063;53.210;6.504;2023-08-31T07:05:34;13.40;99.90
52058;DHT22;38063;53.210;6.504;2023-08-31T07:08:02;13.70;99.90
52058;DHT22;38063;53.210;6.504;2023-08-31T07:10:28;13.90;99.90
52058;DHT22;38063;53.210;6.504;2023-08-31T07:12:54;14.10;99.90
52058;DHT22;38063;53.210;6.504;2023-08-31T07:15:19;14.30;99.90
52058;DHT22;38063;53.210;6.504;2023-08-31T07:17:45;14.50;99.90
52058;DHT22;38063;53.210;6.504;2023-08-31T07:20:12;14.60;99.90
52058;DHT22;38063;53.210;6.504;2023-08-31T07:22:37;14.80;99.90
52058;DHT22;38063;53.210;6.504;2023-08-31T07:25:04;15.00;99.90
52058;DHT22;38063;53.210;6.504;2023-08-31T07:27:30;15.20;99.90
52058;DHT22;38063;53.210;6.504;2023-08-31T07:29:55;15.40;99.90
52058;DHT22;38063;53.210;6.504;2023-08-31T07:32:21;15.40;99.90
52058;DHT22;38063;53.210;6.504;2023-08-31T07:34:47;15.50;99.90
52058;DHT22;38063;53.210;6.504;2023-08-31T07:37:13;15.70;99.90
52058;DHT22;38063;53.210;6.504;2023-08-31T07:39:39;15.90;99.90
52058;DHT22;38063;53.210;6.504;2023-08-31T07:42:05;16.00;99.90
52058;DHT22;38063;53.210;6.504;2023-08-31T07:44:31;16.10;99.90
52058;DHT22;38063;53.210;6.504;2023-08-31T07:46:56;16.30;99.90
52058;DHT22;38063;53.210;6.504;2023-08-31T07:49:22;16.40;99.90
52058;DHT22;38063;53.210;6.504;2023-08-31T07:51:48;16.60;99.90
52058;DHT22;38063;53.210;6.504;2023-08-31T07:54:21;16.70;99.90
52058;DHT22;38063;53.210;6.504;2023-08-31T07:56:47;16.80;99.90
52058;DHT22;38063;53.210;6.504;2023-08-31T07:59:12;17.00;99.90
52058;DHT22;38063;53.210;6.504;2023-08-31T08:01:38;17.10;99.90
52058;DHT22;38063;53.210;6.504;2023-08-31T08:04:03;17.20;99.90
52058;DHT22;38063;53.210;6.504;2023-08-31T08:06:29;17.40;99.90
52058;DHT22;38063;53.210;6.504;2023-08-31T08:08:55;17.50;99.90
52058;DHT22;38063;53.210;6.504;2023-08-31T08:11:22;17.80;99.90
52058;DHT22;38063;53.210;6.504;2023-08-31T08:13:48;17.90;99.90
52058;DHT22;38063;53.210;6.504;2023-08-31T08:16:14;18.10;99.90
52058;DHT22;38063;53.210;6.504;2023-08-31T08:18:40;18.20;99.90
52058;DHT22;38063;53.210;6.504;2023-08-31T08:21:06;18.30;99.90
52058;DHT22;38063;53.210;6.504;2023-08-31T08:23:32;18.30;99.90
52058;DHT22;38063;53.210;6.504;2023-08-31T08:25:58;18.40;99.90
52058;DHT22;38063;53.210;6.504;2023-08-31T08:28:25;18.40;99.90
52058;DHT22;38063;53.210;6.504;2023-08-31T08:30:51;18.40;99.90
52058;DHT22;38063;53.210;6.504;2023-08-31T08:33:17;18.40;99.90
52058;DHT22;38063;53.210;6.504;2023-08-31T08:35:43;18.50;99.90
52058;DHT22;38063;53.210;6.504;2023-08-31T08:38:08;18.60;99.90
52058;DHT22;38063;53.210;6.504;2023-08-31T08:40:34;18.80;99.90
52058;DHT22;38063;53.210;6.504;2023-08-31T08:43:01;18.90;99.90
52058;DHT22;38063;53.210;6.504;2023-08-31T08:45:33;19.10;99.90
52058;DHT22;38063;53.210;6.504;2023-08-31T08:48:02;19.10;99.90
52058;DHT22;38063;53.210;6.504;2023-08-31T08:50:28;19.10;99.90
52058;DHT22;38063;53.210;6.504;2023-08-31T08:52:54;19.10;99.90
52058;DHT22;38063;53.210;6.504;2023-08-31T08:55:20;19.20;99.90
52058;DHT22;38063;53.210;6.504;2023-08-31T08:57:47;19.30;99.90
52058;DHT22;38063;53.210;6.504;2023-08-31T09:00:13;19.50;99.90
52058;DHT22;38063;53.210;6.504;2023-08-31T09:02:39;19.80;99.90
52058;DHT22;38063;53.210;6.504;2023-08-31T09:05:04;19.60;99.90
52058;DHT22;38063;53.210;6.504;2023-08-31T09:07:35;19.10;99.90
52058;DHT22;38063;53.210;6.504;2023-08-31T09:10:04;18.50;99.90
52058;DHT22;38063;53.210;6.504;2023-08-31T09:12:30;18.10;99.90
52058;DHT22;38063;53.210;6.504;2023-08-31T09:15:00;17.80;99.90
52058;DHT22;38063;53.210;6.504;2023-08-31T09:17:26;17.80;99.90
52058;DHT22;38063;53.210;6.504;2023-08-31T09:20:01;18.00;99.90
52058;DHT22;38063;53.210;6.504;2023-08-31T09:22:32;18.40;99.90
52058;DHT22;38063;53.210;6.504;2023-08-31T09:24:58;18.50;99.90
52058;DHT22;38063;53.210;6.504;2023-08-31T09:27:24;18.80;99.90
52058;DHT22;38063;53.210;6.504;2023-08-31T09:29:50;19.00;99.90
52058;DHT22;38063;53.210;6.504;2023-08-31T09:32:19;19.20;99.90
52058;DHT22;38063;53.210;6.504;2023-08-31T09:34:45;19.40;99.90
52058;DHT22;38063;53.210;6.504;2023-08-31T09:37:11;19.70;99.90
52058;DHT22;38063;53.210;6.504;2023-08-31T09:39:39;20.00;99.90
52058;DHT22;38063;53.210;6.504;2023-08-31T09:42:05;20.30;99.90
52058;DHT22;38063;53.210;6.504;2023-08-31T09:44:31;20.40;99.90
52058;DHT22;38063;53.210;6.504;2023-08-31T09:46:57;20.40;99.90
52058;DHT22;38063;53.210;6.504;2023-08-31T09:49:24;20.50;99.90
52058;DHT22;38063;53.210;6.504;2023-08-31T09:51:51;20.30;99.90
52058;DHT22;38063;53.210;6.504;2023-08-31T09:54:18;20.00;99.90
52058;DHT22;38063;53.210;6.504;2023-08-31T09:56:46;19.70;99.90
52058;DHT22;38063;53.210;6.504;2023-08-31T09:59:13;19.60;99.90
52058;DHT22;38063;53.210;6.504;2023-08-31T10:01:40;19.80;99.90
52058;DHT22;38063;53.210;6.504;2023-08-31T10:04:06;19.80;99.90
52058;DHT22;38063;53.210;6.504;2023-08-31T10:06:43;19.80;99.90
52058;DHT22;38063;53.210;6.504;2023-08-31T10:09:09;19.60;99.90
52058;DHT22;38063;53.210;6.504;2023-08-31T10:11:35;19.30;99.90
52058;DHT22;38063;53.210;6.504;2023-08-31T10:14:02;18.90;99.90
52058;DHT22;38063;53.210;6.504;2023-08-31T10:16:29;18.60;99.90
52058;DHT22;38063;53.210;6.504;2023-08-31T10:18:56;18.20;99.90
52058;DHT22;38063;53.210;6.504;2023-08-31T10:21:22;17.80;99.90
52058;DHT22;38063;53.210;6.504;2023-08-31T10:23:48;17.80;99.90
52058;DHT22;38063;53.210;6.504;2023-08-31T10:26:43;18.10;99.90
52058;DHT22;38063;53.210;6.504;2023-08-31T10:29:26;18.70;99.90
52058;DHT22;38063;53.210;6.504;2023-08-31T10:31:53;19.10;99.90
52058;DHT22;38063;53.210;6.504;2023-08-31T10:34:36;19.50;99.90
52058;DHT22;38063;53.210;6.504;2023-08-31T10:37:19;19.90;99.90
52058;DHT22;38063;53.210;6.504;2023-08-31T10:39:45;20.30;99.90
52058;DHT22;38063;53.210;6.504;2023-08-31T10:42:11;20.60;99.90
52058;DHT22;38063;53.210;6.504;2023-08-31T10:44:37;20.60;99.90
52058;DHT22;38063;53.210;6.504;2023-08-31T10:47:05;20.50;99.90
52058;DHT22;38063;53.210;6.504;2023-08-31T10:49:31;20.20;99.90
52058;DHT22;38063;53.210;6.504;2023-08-31T10:52:15;19.80;99.90
52058;DHT22;38063;53.210;6.504;2023-08-31T10:54:46;19.30;99.90
52058;DHT22;38063;53.210;6.504;2023-08-31T10:57:12;18.90;99.90
52058;DHT22;38063;53.210;6.504;2023-08-31T10:59:49;18.60;99.90
52058;DHT22;38063;53.210;6.504;2023-08-31T11:07:35;18.30;99.90
52058;DHT22;38063;53.210;6.504;2023-08-31T11:10:30;18.60;99.90
52058;DHT22;38063;53.210;6.504;2023-08-31T11:12:55;19.10;99.90
52058;DHT22;38063;53.210;6.504;2023-08-31T11:15:24;19.50;99.90
52058;DHT22;38063;53.210;6.504;2023-08-31T11:17:51;19.80;99.90
52058;DHT22;38063;53.210;6.504;2023-08-31T11:20:19;20.00;99.90
52058;DHT22;38063;53.210;6.504;2023-08-31T11:22:47;19.90;99.90
52058;DHT22;38063;53.210;6.504;2023-08-31T11:25:15;19.60;99.90
52058;DHT22;38063;53.210;6.504;2023-08-31T11:27:41;19.30;99.90
52058;DHT22;38063;53.210;6.504;2023-08-31T11:30:16;19.10;99.90
52058;DHT22;38063;53.210;6.504;2023-08-31T11:32:46;19.00;99.90
52058;DHT22;38063;53.210;6.504;2023-08-31T11:35:14;18.90;99.90
52058;DHT22;38063;53.210;6.504;2023-08-31T11:37:45;18.80;99.90
52058;DHT22;38063;53.210;6.504;2023-08-31T11:40:14;19.00;99.90
52058;DHT22;38063;53.210;6.504;2023-08-31T11:42:40;19.20;99.90
52058;DHT22;38063;53.210;6.504;2023-08-31T11:45:07;19.60;99.90
52058;DHT22;38063;53.210;6.504;2023-08-31T11:47:33;20.20;99.90
52058;DHT22;38063;53.210;6.504;2023-08-31T11:50:00;20.60;99.90
52058;DHT22;38063;53.210;6.504;2023-08-31T11:52:30;20.40;99.90
52058;DHT22;38063;53.210;6.504;2023-08-31T11:54:56;20.10;99.90
52058;DHT22;38063;53.210;6.504;2023-08-31T11:57:26;19.50;99.90
52058;DHT22;38063;53.210;6.504;2023-08-31T11:59:52;19.00;99.90
52058;DHT22;38063;53.210;6.504;2023-08-31T12:02:20;18.90;99.90
52058;DHT22;38063;53.210;6.504;2023-08-31T12:04:48;19.00;99.90
52058;DHT22;38063;53.210;6.504;2023-08-31T12:07:18;19.20;99.90
52058;DHT22;38063;53.210;6.504;2023-08-31T12:09:44;19.40;99.90
52058;DHT22;38063;53.210;6.504;2023-08-31T12:12:13;19.60;99.90
52058;DHT22;38063;53.210;6.504;2023-08-31T12:14:39;19.80;99.90
52058;DHT22;38063;53.210;6.504;2023-08-31T12:17:07;19.60;99.90
52058;DHT22;38063;53.210;6.504;2023-08-31T12:19:35;19.30;99.90
52058;DHT22;38063;53.210;6.504;2023-08-31T12:22:01;19.00;99.90
52058;DHT22;38063;53.210;6.504;2023-08-31T12:24:27;18.80;99.90
52058;DHT22;38063;53.210;6.504;2023-08-31T12:26:54;18.70;99.90
52058;DHT22;38063;53.210;6.504;2023-08-31T12:29:20;18.60;99.90
52058;DHT22;38063;53.210;6.504;2023-08-31T12:31:46;18.50;99.90
52058;DHT22;38063;53.210;6.504;2023-08-31T12:34:12;18.50;99.90
52058;DHT22;38063;53.210;6.504;2023-08-31T12:36:38;18.50;99.90
52058;DHT22;38063;53.210;6.504;2023-08-31T12:39:06;18.50;99.90
52058;DHT22;38063;53.210;6.504;2023-08-31T12:41:36;18.40;99.90
52058;DHT22;38063;53.210;6.504;2023-08-31T12:44:03;18.50;99.90
52058;DHT22;38063;53.210;6.504;2023-08-31T12:46:29;18.70;99.90
52058;DHT22;38063;53.210;6.504;2023-08-31T12:48:55;19.10;99.90
52058;DHT22;38063;53.210;6.504;2023-08-31T12:51:21;19.60;99.90
52058;DHT22;38063;53.210;6.504;2023-08-31T12:53:46;20.00;99.90
52058;DHT22;38063;53.210;6.504;2023-08-31T12:56:12;20.40;99.90
52058;DHT22;38063;53.210;6.504;2023-08-31T12:58:39;20.30;99.90
52058;DHT22;38063;53.210;6.504;2023-08-31T13:01:05;20.10;99.90
52058;DHT22;38063;53.210;6.504;2023-08-31T13:03:30;20.30;99.90
52058;DHT22;38063;53.210;6.504;2023-08-31T13:05:56;20.50;99.90
52058;DHT22;38063;53.210;6.504;2023-08-31T13:08:23;20.60;99.90
52058;DHT22;38063;53.210;6.504;2023-08-31T13:10:52;20.60;99.90
52058;DHT22;38063;53.210;6.504;2023-08-31T13:13:19;20.40;99.90
52058;DHT22;38063;53.210;6.504;2023-08-31T13:15:48;20.20;99.90
52058;DHT22;38063;53.210;6.504;2023-08-31T13:18:14;20.00;99.90
52058;DHT22;38063;53.210;6.504;2023-08-31T13:20:40;19.90;99.90
52058;DHT22;38063;53.210;6.504;2023-08-31T13:23:06;19.90;99.90
52058;DHT22;38063;53.210;6.504;2023-08-31T13:25:32;20.00;99.90
52058;DHT22;38063;53.210;6.504;2023-08-31T13:27:58;20.20;99.90
52058;DHT22;38063;53.210;6.504;2023-08-31T13:30:24;20.40;99.90
52058;DHT22;38063;53.210;6.504;2023-08-31T13:32:49;20.60;99.90
52058;DHT22;38063;53.210;6.504;2023-08-31T13:35:16;20.70;99.90
52058;DHT22;38063;53.210;6.504;2023-08-31T13:37:41;20.70;99.90
52058;DHT22;38063;53.210;6.504;2023-08-31T13:40:07;20.80;99.90
52058;DHT22;38063;53.210;6.504;2023-08-31T13:42:36;20.80;99.90
52058;DHT22;38063;53.210;6.504;2023-08-31T13:45:06;20.70;99.90
52058;DHT22;38063;53.210;6.504;2023-08-31T13:47:33;20.70;99.90
52058;DHT22;38063;53.210;6.504;2023-08-31T13:49:58;20.60;99.90
52058;DHT22;38063;53.210;6.504;2023-08-31T13:52:24;20.60;99.90
52058;DHT22;38063;53.210;6.504;2023-08-31T13:54:50;20.60;99.90
52058;DHT22;38063;53.210;6.504;2023-08-31T13:57:16;20.70;99.90
52058;DHT22;38063;53.210;6.504;2023-08-31T13:59:43;20.80;99.90
52058;DHT22;38063;53.210;6.504;2023-08-31T14:02:09;21.00;99.90
52058;DHT22;38063;53.210;6.504;2023-08-31T14:04:35;21.10;99.90
52058;DHT22;38063;53.210;6.504;2023-08-31T14:07:00;21.00;99.90
52058;DHT22;38063;53.210;6.504;2023-08-31T14:09:27;20.70;99.90
52058;DHT22;38063;53.210;6.504;2023-08-31T14:11:53;20.30;99.90
52058;DHT22;38063;53.210;6.504;2023-08-31T14:14:20;20.10;99.90
52058;DHT22;38063;53.210;6.504;2023-08-31T14:16:47;19.90;99.90
52058;DHT22;38063;53.210;6.504;2023-08-31T14:19:13;19.60;99.90
52058;DHT22;38063;53.210;6.504;2023-08-31T14:21:39;19.40;99.90
52058;DHT22;38063;53.210;6.504;2023-08-31T14:24:05;19.20;99.90
52058;DHT22;38063;53.210;6.504;2023-08-31T14:26:31;19.10;99.90
52058;DHT22;38063;53.210;6.504;2023-08-31T14:28:57;18.90;99.90
52058;DHT22;38063;53.210;6.504;2023-08-31T14:31:23;18.60;99.90
52058;DHT22;38063;53.210;6.504;2023-08-31T14:33:48;18.40;99.90
52058;DHT22;38063;53.210;6.504;2023-08-31T14:36:18;18.20;99.90
52058;DHT22;38063;53.210;6.504;2023-08-31T14:38:44;18.10;99.90
52058;DHT22;38063;53.210;6.504;2023-08-31T14:41:11;18.10;99.90
52058;DHT22;38063;53.210;6.504;2023-08-31T14:43:37;18.30;99.90
52058;DHT22;38063;53.210;6.504;2023-08-31T14:46:02;18.40;99.90
52058;DHT22;38063;53.210;6.504;2023-08-31T14:48:30;18.30;99.90
52058;DHT22;38063;53.210;6.504;2023-08-31T14:50:56;18.30;99.90
52058;DHT22;38063;53.210;6.504;2023-08-31T14:53:24;18.20;99.90
52058;DHT22;38063;53.210;6.504;2023-08-31T14:55:51;18.30;99.90
52058;DHT22;38063;53.210;6.504;2023-08-31T14:58:17;18.30;99.90
52058;DHT22;38063;53.210;6.504;2023-08-31T15:00:42;18.20;99.90
52058;DHT22;38063;53.210;6.504;2023-08-31T15:03:09;18.20;99.90
52058;DHT22;38063;53.210;6.504;2023-08-31T15:05:35;17.90;99.90
52058;DHT22;38063;53.210;6.504;2023-08-31T15:08:05;17.80;99.90
52058;DHT22;38063;53.210;6.504;2023-08-31T15:10:30;17.70;99.90
52058;DHT22;38063;53.210;6.504;2023-08-31T15:12:56;17.70;99.90
52058;DHT22;38063;53.210;6.504;2023-08-31T15:15:28;17.80;99.90
52058;DHT22;38063;53.210;6.504;2023-08-31T15:17:54;18.00;99.90
52058;DHT22;38063;53.210;6.504;2023-08-31T15:20:21;18.20;99.90
52058;DHT22;38063;53.210;6.504;2023-08-31T15:22:47;18.30;99.90
52058;DHT22;38063;53.210;6.504;2023-08-31T15:25:14;18.40;99.90
52058;DHT22;38063;53.210;6.504;2023-08-31T15:27:41;18.50;99.90
52058;DHT22;38063;53.210;6.504;2023-08-31T15:30:08;18.60;99.90
52058;DHT22;38063;53.210;6.504;2023-08-31T15:32:34;18.60;99.90
52058;DHT22;38063;53.210;6.504;2023-08-31T15:35:00;18.40;99.90
52058;DHT22;38063;53.210;6.504;2023-08-31T15:37:26;18.30;99.90
52058;DHT22;38063;53.210;6.504;2023-08-31T15:39:51;18.20;99.90